9 Max
6 km/h
3 Mini

LFMY 270730Z AUTO 34003KT 300V020 CAVOK 25/17 Q1015 BECMG 12015G25KT

TAF LFMY 270606Z 2703/2803 VRB03KT CAVOK BECMG 2708/2710 12015G25KT TEMPO 2715/2718 SHRA BKN100CB